Long Prairie, MN (56347)

02:26 CST le 01 Mars 2015 (GMT -0600)
Long Prairie | Change Station
CLOSE
Current Station
Aéroport
Location: Long Prairie,
Altitude: 1332 ft
Stations météo à proximité

Alt. 1332 ft 45.90 °N, 94.87 °W | Updated 8 minutes ago

Couvert
Couvert
18 ° F
Paraît 9 ° F
N
6
Vent Variable Vent de SSO

Aujourd'hui
Haut(e) -- | Bas -- ° F
--% Risque de précip.
Hier
Haut(e) -- | Bas -- ° F
Precip. -- pouce
6:58 AM 6:05 PM
Lune gibbeuse croissante, 83% visible
Pression 30.17 pouce
Visibilité 10.0 Miles terrestres
Nuages Couvert 1200 ft
Refroidissement éolien 9 ° F
Point de rosée 12 ° F
Humidité 79%
Précipitations 0.00 pouce
Profondeur de la couche neigeuse Non disponible.
UV 0 sur 12
Pollen .40 sur 12
Qualité de l'air Non disponible.
Flu Activity Non disponible.
METAR K14Y 010818Z AUTO 21005KT 10SM OVC012 M08/M11 A3017 RMK AO2

More Conditions Fewer Conditions

Pression 30.17 pouce
Visibilité 10.0 Miles terrestres
Nuages Couvert 1200 ft
Refroidissement éolien 9 ° F
Point de rosée 12 ° F
Humidité 79%
Précipitations 0.00 pouce
Profondeur de la couche neigeuse Non disponible.
UV 0 sur 12
Pollen .40 sur 12
Qualité de l'air Non disponible.
Flu Activity Non disponible.
METAR K14Y 010818Z AUTO 21005KT 10SM OVC012 M08/M11 A3017 RMK AO2

More Conditions Fewer Conditions

10-Day Weather Forecast

Almanac

Astronomie

Mar. 01, 2015 Lever Coucher
Temps réel
Crépuscule civil
Crépuscule nautique
Crépuscule astronomique
Lune
Durée de lumière visible
Longueur du jour
Tomorrow will be .
, % of the Moon is Illuminated

Extrêmes aujourd'hui

State Highs State Lows

Community

WunderPhotos

Upload Photos

1,801,350 Photos téléchargées !

WunderBlogs® & News

Nearby

Qualité de l'air

  Qualité de l'air Indice de la qualité de l'air Polluant
Not available.

Épaisseur de neige

Station Depth Altitude

Activité sismique

Ville Distance Mag. Time & Date
Minimum magnitude displayed is 2.5.

Températures des eaux côtières

Lieu Température

Stations météo à proximité